Данни от 26.02.2020 г. 06:12:57

Температура вътрешна: 19.2 °C
Температура външна: 10.6 °C
Атмосферно налягане: 986.8 hPa
Атмосферно налягане на морско равнище: 1004.4 hPa
Влажност: 52.0 %



История от последните 24 часа

Дата и часTin [°C]P [hPa]Psl [hPa]H [%]Tout [°C]
   26.02.2020 г. 06:00:58      19.1      986.9      1004.5      52.1      10.8   
   26.02.2020 г. 05:30:57      19.4      986.9      1004.5      51.6      11.0   
   26.02.2020 г. 05:00:58      19.4      986.9      1004.6      51.6      11.3   
   26.02.2020 г. 04:30:57      19.4      987.0      1004.6      51.7      11.6   
   26.02.2020 г. 04:00:58      19.4      986.9      1004.5      51.5      11.6   
   26.02.2020 г. 03:30:57      19.4      987.1      1004.7      51.3      12.6   
   26.02.2020 г. 03:00:58      19.4      987.2      1004.9      51.2      13.0   
   26.02.2020 г. 02:30:57      19.4      987.4      1005.0      51.2      13.3   
   26.02.2020 г. 02:00:58      19.4      987.5      1005.2      50.9      13.1   
   26.02.2020 г. 01:30:57      19.4      987.6      1005.2      50.9      13.6   
   26.02.2020 г. 01:00:58      19.4      987.8      1005.5      50.5      13.4   
   26.02.2020 г. 00:30:57      19.4      987.9      1005.5      51.4      14.0   
   26.02.2020 г. 00:00:57      19.4      988.1      1005.8      50.5      13.9   
   25.02.2020 г. 23:30:57      19.4      988.4      1006.0      50.3      14.0   
   25.02.2020 г. 23:00:57      19.4      988.7      1006.3      50.2      14.5   
   25.02.2020 г. 22:30:57      19.1      988.9      1006.5      50.8      14.1   
   25.02.2020 г. 22:00:57      19.2      989.3      1007.0      50.3      14.1   
   25.02.2020 г. 21:30:57      19.3      989.5      1007.2      49.9      15.1   
   25.02.2020 г. 21:00:57      19.3      989.5      1007.2      48.0      14.8   
   25.02.2020 г. 20:30:57      19.3      989.9      1007.6      48.4      15.3   
   25.02.2020 г. 20:00:57      19.3      990.2      1007.9      47.5      15.3   
   25.02.2020 г. 19:30:58      19.3      990.5      1008.1      48.3      15.4   
   25.02.2020 г. 19:00:57      19.3      990.7      1008.3      47.3      15.3   
   25.02.2020 г. 18:30:58      19.2      990.7      1008.4      49.1      15.4   
   25.02.2020 г. 18:00:57      19.2      991.2      1008.9      47.8      16.6   
   25.02.2020 г. 17:30:58      19.2      991.3      1008.9      47.0      17.0   
   25.02.2020 г. 17:00:57      19.2      991.6      1009.3      46.1      16.9   
   25.02.2020 г. 16:30:58      19.1      992.0      1009.7      43.5      18.5   
   25.02.2020 г. 16:00:57      19.1      992.0      1009.7      43.3      20.8   
   25.02.2020 г. 15:30:58      19.1      992.7      1010.4      43.2      23.2   
   25.02.2020 г. 15:00:57      19.0      993.0      1010.7      43.5      22.0   
   25.02.2020 г. 14:30:58      19.0      993.5      1011.2      43.3      20.8   
   25.02.2020 г. 14:00:57      18.9      994.3      1012.0      43.8      19.6   
   25.02.2020 г. 13:30:58      18.9      994.9      1012.6      43.2      18.4   
   25.02.2020 г. 13:00:57      18.9      995.7      1013.5      44.1      17.2   
   25.02.2020 г. 12:30:58      18.9      996.5      1014.3      44.7      16.0   
   25.02.2020 г. 12:00:57      18.9      997.1      1014.9      45.3      15.3   
   25.02.2020 г. 11:30:58      18.9      997.5      1015.3      46.1      14.6   
   25.02.2020 г. 11:00:57      19.0      997.9      1015.7      46.7      13.9   
   25.02.2020 г. 10:30:58      19.0      998.3      1016.1      47.5      12.8   
   25.02.2020 г. 10:00:57      19.1      999.1      1016.9      48.0      11.4   
   25.02.2020 г. 09:30:57      19.1      999.5      1017.3      47.7      7.5   
   25.02.2020 г. 09:00:57      19.1      1000.0      1017.9      48.2      7.0   
   25.02.2020 г. 08:30:57      19.1      1000.3      1018.2      48.5      5.4   
   25.02.2020 г. 08:00:57      19.1      1000.5      1018.4      47.7      4.4   
   25.02.2020 г. 07:30:57      18.9      1000.7      1018.5      47.7      3.3   
   25.02.2020 г. 07:00:58      19.0      1000.8      1018.6      48.2      1.9   
   25.02.2020 г. 06:30:57      19.2      1000.8      1018.7      49.2      3.8   

BaroSL graphic

TEMPE graphic